Portada
METAR-TAF:

METAR-TAF

Aeroports :

Sulaymaniyya, Iraq

latitud: 35-33-39N, longitud: 45-18-52E, altitud: 760 m

Observació

L'informe es va fer fa 14 minuts, a les 23:00 UTC
Vent 4 kt del Nord-Oest
Temperatura 5°C
Humitat 65%
Pressió 1022 hPa
Visibilitat 10 km o més
sense núvols per sota de 1500 mi sense presència de cumulonimbus.

METAR: ORSU 132300Z 31004KT CAVOK 05/M01 Q1022

Hora: 02:14 (23:14 UTC)

Pronòstic

L'informe es va fer fa 6 hores i 14 minuts, a les 17:00 UTC
Pronòstic vàlid del 13 a les 18 UTC al 14 a les 18 UTC
Vent 6 kt del Oest/Nord-Oest
Visibilitat 10 km o més
sense núvols per sota de 1500 mi sense presència de cumulonimbus.
Evolucionant progressivament
l' 14 a les 07 UTC al 14 a les 09 UTC
Vent 8 kt del Sud/Sud-Est
Visibilitat 10 km o més
Núvols disperses a una alçada de 4000 ft
Núvols disperses a una alçada de 8000 ft

TAF: ORSU 131700Z 1318/1418 30006KT CAVOK BECMG 1407/1409 15008KT 9999 SCT040 SCT080

Observacions i pronòstics meteorològics de més de 4000 aeroports (METAR i TAF).

Les estacions disponibles són els punts grocs i vermells al mapa.

Posi el ratolí al punt desitjat per veure el nom de l'estació.

Feu clic per veure les observacions i els pronòstics meteorològics.

Per canviar el mapa: feu clic els botons verds amb una creu de color negre per apropar; al botó verd amb un guió per allunyar la imatge; o en les fletxes verdes per a mapes adjacents.


METAR-TAF: